Time;durP1;ratioP1;P1;durP2;ratioP2;P2;SDS_P1;SDS_P2;PMS_P1;PMS_P2;Temp;Humidity;BMP_temperature;BMP_pressure;BME280_temperature;BME280_humidity;BME280_pressure;Samples;Min_cycle;Max_cycle;Signal;HPM_P1;HPM_P2
2022/01/17 00:02:20;;;;;;;;;;;6.30;90.80;;;;;;5070794;28;19913;-82
2022/01/17 00:04:47;;;;;;;;;;;6.20;90.80;;;;;;5070030;28;20002;-81
2022/01/17 00:07:12;;;;;;;;;;;6.20;90.80;;;;;;5055800;28;19941;-82
2022/01/17 00:09:38;;;;;;;;;;;6.30;90.50;;;;;;5070388;28;19932;-81
2022/01/17 00:12:04;;;;;;;;;;;6.40;90.40;;;;;;5053818;28;19956;-80
2022/01/17 00:14:34;;;;;;;;;;;6.40;90.30;;;;;;5054990;28;19912;-80
2022/01/17 00:17:10;;;;;;;;;;;6.40;90.40;;;;;;5070282;28;19939;-80
2022/01/17 00:19:41;;;;;;;;;;;6.40;90.40;;;;;;5054305;28;19913;-81
2022/01/17 00:22:06;;;;;;;;;;;6.40;90.50;;;;;;5054350;28;19994;-81
2022/01/17 00:24:32;;;;;;;;;;;6.40;90.20;;;;;;5039582;28;19909;-80
2022/01/17 00:26:57;;;;;;;;;;;6.50;90.30;;;;;;5072829;28;20320;-81
2022/01/17 00:29:23;;;;;;;;;;;6.50;90.00;;;;;;5058121;28;19917;-80
2022/01/17 00:31:49;;;;;;;;;;;6.40;90.20;;;;;;5074507;28;20076;-81
2022/01/17 00:34:14;;;;;;;;;;;6.40;90.20;;;;;;5058470;28;20365;-81
2022/01/17 00:36:40;;;;;;;;;;;6.50;90.20;;;;;;5056225;28;20369;-81
2022/01/17 00:39:05;;;;;;;;;;;6.50;90.10;;;;;;5056248;28;19979;-81
2022/01/17 00:41:31;;;;;;;;;;;6.40;90.00;;;;;;5050768;28;19984;-82
2022/01/17 00:43:56;;;;;;;;;;;6.40;90.20;;;;;;5071220;28;20008;-82
2022/01/17 00:46:22;;;;;;;;;;;6.50;90.40;;;;;;5053714;28;20344;-81
2022/01/17 00:48:47;;;;;;;;;;;6.50;90.20;;;;;;5055857;28;19924;-81
2022/01/17 00:51:13;;;;;;;;;;;6.40;90.30;;;;;;5053062;28;19913;-82
2022/01/17 00:53:40;;;;;;;;;;;6.50;90.00;;;;;;5069981;28;19923;-81
2022/01/17 00:56:06;;;;;;;;;;;6.50;90.00;;;;;;5051794;28;20381;-81
2022/01/17 00:58:32;;;;;;;;;;;6.50;89.70;;;;;;5051622;28;19917;-80
2022/01/17 01:00:57;;;;;;;;;;;6.50;89.80;;;;;;5049298;28;20437;-80
2022/01/17 01:03:23;;;;;;;;;;;6.50;89.80;;;;;;5054990;28;19919;-81
2022/01/17 01:05:48;;;;;;;;;;;6.50;89.50;;;;;;5058837;28;19975;-81
2022/01/17 01:08:14;;;;;;;;;;;6.50;89.50;;;;;;5051233;28;19982;-80
2022/01/17 01:10:39;;;;;;;;;;;6.50;89.60;;;;;;5048920;28;20031;-81
2022/01/17 01:13:05;;;;;;;;;;;6.50;89.50;;;;;;5050573;28;19916;-80
2022/01/17 01:28:57;;;;;;;;;;;6.50;89.40;;;;;;5054741;28;19984;-81
2022/01/17 01:31:37;;;;;;;;;;;6.50;89.50;;;;;;5051070;28;19916;-81
2022/01/17 01:34:05;;;;;;;;;;;6.60;89.40;;;;;;5052267;28;19966;-81
2022/01/17 01:36:33;;;;;;;;;;;6.60;89.10;;;;;;5052103;28;19946;-81
2022/01/17 01:38:58;;;;;;;;;;;6.60;89.20;;;;;;5051407;28;20400;-81
2022/01/17 01:41:23;;;;;;;;;;;6.50;89.10;;;;;;5051964;28;19913;-80
2022/01/17 01:43:49;;;;;;;;;;;6.60;89.30;;;;;;5069385;28;20431;-81
2022/01/17 01:46:18;;;;;;;;;;;6.60;89.20;;;;;;5054271;28;19921;-81
2022/01/17 01:48:44;;;;;;;;;;;6.60;88.90;;;;;;5055573;28;19920;-81
2022/01/17 01:51:09;;;;;;;;;;;6.60;89.10;;;;;;5053142;28;19913;-81
2022/01/17 01:53:36;;;;;;;;;;;6.60;88.90;;;;;;5052464;28;19917;-80
2022/01/17 01:56:01;;;;;;;;;;;6.70;89.10;;;;;;5054749;28;19913;-80
2022/01/17 01:58:27;;;;;;;;;;;6.80;88.50;;;;;;5068274;28;19913;-80
2022/01/17 02:00:53;;;;;;;;;;;6.70;88.70;;;;;;5053919;28;19996;-81
2022/01/17 02:03:18;;;;;;;;;;;6.60;88.60;;;;;;5054237;28;19986;-79
2022/01/17 02:05:44;;;;;;;;;;;6.60;88.70;;;;;;5052465;28;19917;-81
2022/01/17 02:08:10;;;;;;;;;;;6.70;88.60;;;;;;5051625;28;19916;-79
2022/01/17 02:10:35;;;;;;;;;;;6.70;88.20;;;;;;5064604;28;19917;-79
2022/01/17 02:13:00;;;;;;;;;;;6.60;88.30;;;;;;5066776;28;19917;-79
2022/01/17 02:15:26;;;;;;;;;;;6.60;88.10;;;;;;5050845;28;19912;-80
2022/01/17 02:17:55;;;;;;;;;;;6.60;88.20;;;;;;5050683;28;20003;-80
2022/01/17 02:20:23;;;;;;;;;;;6.60;88.30;;;;;;5065498;28;20109;-80
2022/01/17 02:22:49;;;;;;;;;;;6.60;88.50;;;;;;5053026;28;20419;-80
2022/01/17 02:25:14;;;;;;;;;;;6.60;88.50;;;;;;5048628;28;19929;-80
2022/01/17 02:27:40;;;;;;;;;;;6.60;88.50;;;;;;5048549;28;19916;-79
2022/01/17 02:30:06;;;;;;;;;;;6.70;88.40;;;;;;5051086;28;19913;-81
2022/01/17 02:32:33;;;;;;;;;;;6.70;88.20;;;;;;5051206;28;19956;-80
2022/01/17 02:35:15;;;;;;;;;;;6.70;88.20;;;;;;5052511;28;19917;-80
2022/01/17 02:37:40;;;;;;;;;;;6.70;88.10;;;;;;5035527;28;20308;-80
2022/01/17 02:40:06;;;;;;;;;;;6.70;88.00;;;;;;5051531;28;19935;-80
2022/01/17 02:42:33;;;;;;;;;;;6.70;88.10;;;;;;5054052;28;19944;-80
2022/01/17 02:45:08;;;;;;;;;;;6.70;88.30;;;;;;5074028;28;19971;-80
2022/01/17 02:47:34;;;;;;;;;;;6.70;88.30;;;;;;5062621;28;19927;-81
2022/01/17 02:49:59;;;;;;;;;;;6.70;88.40;;;;;;5055564;28;19921;-80
2022/01/17 02:52:25;;;;;;;;;;;6.60;88.30;;;;;;5073359;28;19913;-81
2022/01/17 02:54:50;;;;;;;;;;;6.70;88.30;;;;;;5058695;28;19974;-81
2022/01/17 02:57:16;;;;;;;;;;;6.70;88.30;;;;;;5062483;28;19928;-81
2022/01/17 02:59:42;;;;;;;;;;;6.70;88.00;;;;;;5067645;28;20452;-81
2022/01/17 03:02:07;;;;;;;;;;;6.60;88.30;;;;;;5065603;28;19921;-80
2022/01/17 03:04:33;;;;;;;;;;;6.60;88.20;;;;;;5072787;28;19948;-81
2022/01/17 03:06:58;;;;;;;;;;;6.60;88.40;;;;;;5055486;28;20002;-81
2022/01/17 03:09:25;;;;;;;;;;;6.60;88.30;;;;;;5061278;28;19940;-81
2022/01/17 03:11:51;;;;;;;;;;;6.60;88.50;;;;;;5054223;28;20399;-81
2022/01/17 03:14:16;;;;;;;;;;;6.60;88.60;;;;;;5048149;28;19913;-80
2022/01/17 03:16:46;;;;;;;;;;;6.60;88.70;;;;;;5054009;28;19940;-81
2022/01/17 03:19:12;;;;;;;;;;;6.60;88.40;;;;;;5056211;28;19912;-80
2022/01/17 03:21:38;;;;;;;;;;;6.60;88.50;;;;;;5071538;28;19924;-81
2022/01/17 03:24:03;;;;;;;;;;;6.60;88.20;;;;;;5054663;28;19921;-81
2022/01/17 03:26:30;;;;;;;;;;;6.70;88.10;;;;;;5054990;28;19975;-81
2022/01/17 03:28:57;;;;;;;;;;;6.60;88.00;;;;;;5071669;28;19909;-80
2022/01/17 03:31:22;;;;;;;;;;;6.60;88.20;;;;;;5072172;28;20285;-80
2022/01/17 03:33:48;;;;;;;;;;;6.60;88.60;;;;;;5055307;28;19913;-81
2022/01/17 03:36:13;;;;;;;;;;;6.50;88.60;;;;;;5072212;28;19990;-81
2022/01/17 03:38:40;;;;;;;;;;;6.50;88.60;;;;;;5073221;28;20688;-81
2022/01/17 03:41:07;;;;;;;;;;;6.60;88.70;;;;;;5058192;28;19923;-81
2022/01/17 03:43:33;;;;;;;;;;;6.50;88.80;;;;;;5056794;28;19943;-81
2022/01/17 03:45:58;;;;;;;;;;;6.50;88.80;;;;;;5054520;28;19921;-80
2022/01/17 03:48:25;;;;;;;;;;;6.50;88.90;;;;;;5054100;28;19924;-81
2022/01/17 03:50:51;;;;;;;;;;;6.50;88.60;;;;;;5066970;28;19931;-82
2022/01/17 03:53:17;;;;;;;;;;;6.40;88.70;;;;;;5056080;28;19909;-81
2022/01/17 03:55:42;;;;;;;;;;;6.40;88.80;;;;;;5055039;28;19985;-81
2022/01/17 03:58:08;;;;;;;;;;;6.40;88.70;;;;;;5052048;28;19913;-80
2022/01/17 04:00:36;;;;;;;;;;;6.30;88.90;;;;;;5069508;28;19913;-81
2022/01/17 04:03:01;;;;;;;;;;;6.30;89.20;;;;;;5055025;28;19913;-82
2022/01/17 04:05:27;;;;;;;;;;;6.30;89.00;;;;;;5071929;28;19916;-82
2022/01/17 04:07:53;;;;;;;;;;;6.40;89.10;;;;;;5070462;28;20007;-83
2022/01/17 04:10:18;;;;;;;;;;;6.30;88.90;;;;;;5050120;28;19924;-81
2022/01/17 04:12:44;;;;;;;;;;;6.30;88.90;;;;;;5072070;28;19923;-82
2022/01/17 04:15:11;;;;;;;;;;;6.20;89.10;;;;;;5070806;28;19913;-81
2022/01/17 04:17:36;;;;;;;;;;;6.20;89.30;;;;;;5069456;28;19919;-82
2022/01/17 04:20:09;;;;;;;;;;;6.30;89.40;;;;;;5050706;28;19952;-82
2022/01/17 04:22:39;;;;;;;;;;;6.40;88.90;;;;;;5052841;28;19913;-83
2022/01/17 04:25:05;;;;;;;;;;;6.30;88.70;;;;;;5056124;28;20015;-82
2022/01/17 04:27:31;;;;;;;;;;;6.40;88.80;;;;;;5055070;28;19972;-82
2022/01/17 04:29:56;;;;;;;;;;;6.40;88.80;;;;;;5066895;28;19952;-82
2022/01/17 04:32:22;;;;;;;;;;;6.40;88.60;;;;;;5055584;28;20385;-82
2022/01/17 04:34:47;;;;;;;;;;;6.40;88.80;;;;;;5055516;28;19925;-82
2022/01/17 04:37:13;;;;;;;;;;;6.50;88.30;;;;;;5055049;28;19913;-81
2022/01/17 04:39:38;;;;;;;;;;;6.50;88.40;;;;;;5059924;28;19999;-82
2022/01/17 04:42:11;;;;;;;;;;;6.50;88.50;;;;;;5052729;28;19948;-82
2022/01/17 04:47:21;;;;;;;;;;;6.50;88.30;;;;;;5058115;28;19959;-83
2022/01/17 04:49:46;;;;;;;;;;;6.40;88.30;;;;;;5055580;28;20878;-82
2022/01/17 04:52:13;;;;;;;;;;;6.40;88.20;;;;;;5056742;28;19928;-81
2022/01/17 04:54:40;;;;;;;;;;;6.40;88.30;;;;;;5078495;28;19992;-81
2022/01/17 04:57:09;;;;;;;;;;;6.40;88.50;;;;;;5060228;28;19985;-82
2022/01/17 04:59:35;;;;;;;;;;;6.40;88.70;;;;;;5072976;28;19921;-81
2022/01/17 05:02:01;;;;;;;;;;;6.40;88.60;;;;;;5075367;28;19923;-82
2022/01/17 05:04:26;;;;;;;;;;;6.30;88.40;;;;;;5075309;28;19912;-80
2022/01/17 05:06:52;;;;;;;;;;;6.30;88.20;;;;;;5071689;28;20286;-81
2022/01/17 05:09:17;;;;;;;;;;;6.30;88.40;;;;;;5058915;28;19916;-81
2022/01/17 05:11:43;;;;;;;;;;;6.30;88.10;;;;;;5075432;28;19955;-82
2022/01/17 05:14:09;;;;;;;;;;;6.40;88.50;;;;;;5060815;28;19923;-81
2022/01/17 05:16:41;;;;;;;;;;;6.40;88.30;;;;;;5059069;28;20457;-82
2022/01/17 05:21:50;;;;;;;;;;;6.40;88.10;;;;;;5062273;28;20007;-81
2022/01/17 05:24:16;;;;;;;;;;;6.40;87.90;;;;;;5060462;28;19917;-81
2022/01/17 05:26:42;;;;;;;;;;;6.30;88.10;;;;;;5060014;28;20344;-81
2022/01/17 05:29:07;;;;;;;;;;;6.30;88.00;;;;;;5059209;28;19912;-81
2022/01/17 05:31:33;;;;;;;;;;;6.40;87.70;;;;;;5059815;28;19916;-81
2022/01/17 05:33:58;;;;;;;;;;;6.30;87.80;;;;;;5060161;28;19917;-81
2022/01/17 05:36:24;;;;;;;;;;;6.30;87.90;;;;;;5073112;28;20253;-80
2022/01/17 05:38:52;;;;;;;;;;;6.30;87.40;;;;;;5072655;28;19913;-80
2022/01/17 05:41:17;;;;;;;;;;;6.30;87.20;;;;;;5058334;28;19936;-81
2022/01/17 05:43:43;;;;;;;;;;;6.20;87.30;;;;;;5073394;28;19913;-81
2022/01/17 05:46:08;;;;;;;;;;;6.30;87.50;;;;;;5057624;28;20064;-80
2022/01/17 05:48:34;;;;;;;;;;;6.30;87.20;;;;;;5075415;28;20376;-81
2022/01/17 05:50:59;;;;;;;;;;;6.40;86.90;;;;;;5073861;28;19919;-82
2022/01/17 05:53:25;;;;;;;;;;;6.30;86.50;;;;;;5057270;28;19923;-81
2022/01/17 05:55:51;;;;;;;;;;;6.30;86.50;;;;;;5052886;28;20000;-83
2022/01/17 05:58:16;;;;;;;;;;;6.30;86.20;;;;;;5051761;28;20563;-84
2022/01/17 06:00:42;;;;;;;;;;;6.30;86.40;;;;;;5070805;28;19982;-82
2022/01/17 06:03:07;;;;;;;;;;;6.40;85.60;;;;;;5052590;28;19924;-82
2022/01/17 06:05:33;;;;;;;;;;;6.40;84.90;;;;;;5069411;28;19917;-83
2022/01/17 06:07:58;;;;;;;;;;;6.40;85.20;;;;;;5054852;28;19962;-82
2022/01/17 06:10:23;;;;;;;;;;;6.30;85.40;;;;;;5057380;28;19916;-81
2022/01/17 06:12:49;;;;;;;;;;;6.40;85.30;;;;;;5043654;28;20256;-83
2022/01/17 06:15:18;;;;;;;;;;;6.40;85.50;;;;;;5049959;28;20007;-82
2022/01/17 06:17:44;;;;;;;;;;;6.30;85.30;;;;;;5053752;28;19916;-83
2022/01/17 06:20:10;;;;;;;;;;;6.30;85.20;;;;;;5055103;28;20158;-81
2022/01/17 06:22:35;;;;;;;;;;;6.30;85.30;;;;;;5056108;28;19932;-81
2022/01/17 06:25:01;;;;;;;;;;;6.40;85.40;;;;;;5077871;28;20435;-82
2022/01/17 06:27:26;;;;;;;;;;;6.30;85.20;;;;;;5069471;28;20012;-83
2022/01/17 06:29:52;;;;;;;;;;;6.30;85.60;;;;;;5058330;28;20655;-82
2022/01/17 06:32:17;;;;;;;;;;;6.30;85.60;;;;;;5054503;28;20022;-80
2022/01/17 06:34:43;;;;;;;;;;;6.30;85.60;;;;;;5060119;28;19909;-83
2022/01/17 06:37:08;;;;;;;;;;;6.30;85.30;;;;;;5073139;28;19917;-83
2022/01/17 06:39:34;;;;;;;;;;;6.40;85.40;;;;;;5074314;28;20386;-81
2022/01/17 06:41:59;;;;;;;;;;;6.40;85.50;;;;;;5058132;28;19982;-84
2022/01/17 06:44:25;;;;;;;;;;;6.30;85.90;;;;;;5052210;28;19913;-84
2022/01/17 06:46:50;;;;;;;;;;;6.30;85.80;;;;;;5058495;28;19917;-84
2022/01/17 06:49:16;;;;;;;;;;;6.30;85.60;;;;;;5077161;28;19909;-82
2022/01/17 06:51:41;;;;;;;;;;;6.30;85.70;;;;;;5078478;28;19908;-83
2022/01/17 06:54:07;;;;;;;;;;;6.30;85.50;;;;;;5075777;28;19913;-82
2022/01/17 06:56:32;;;;;;;;;;;6.20;85.60;;;;;;5074605;28;20514;-83
2022/01/17 06:58:58;;;;;;;;;;;6.20;85.50;;;;;;5058583;28;19955;-82
2022/01/17 07:01:23;;;;;;;;;;;6.20;85.50;;;;;;5072508;28;19913;-83
2022/01/17 07:03:50;;;;;;;;;;;6.20;85.80;;;;;;5045683;28;20008;-84
2022/01/17 07:06:16;;;;;;;;;;;6.20;85.50;;;;;;5059943;28;19913;-82
2022/01/17 07:08:43;;;;;;;;;;;6.20;85.70;;;;;;5061378;28;19927;-83
2022/01/17 07:11:08;;;;;;;;;;;6.20;85.90;;;;;;5062684;28;19916;-83
2022/01/17 07:13:34;;;;;;;;;;;6.20;85.50;;;;;;5055924;28;19916;-84
2022/01/17 07:15:59;;;;;;;;;;;6.30;85.30;;;;;;5070641;28;19963;-83
2022/01/17 07:18:25;;;;;;;;;;;6.30;85.70;;;;;;5054228;28;19912;-84
2022/01/17 07:20:50;;;;;;;;;;;6.30;85.80;;;;;;5071816;28;20347;-84
2022/01/17 07:23:16;;;;;;;;;;;6.30;85.80;;;;;;5059329;28;19935;-84
2022/01/17 07:25:42;;;;;;;;;;;6.40;85.40;;;;;;5072099;28;19927;-84
2022/01/17 07:28:08;;;;;;;;;;;6.40;85.50;;;;;;5039569;28;19980;-84
2022/01/17 07:30:34;;;;;;;;;;;6.40;85.50;;;;;;5053897;28;19920;-83
2022/01/17 07:33:00;;;;;;;;;;;6.40;85.60;;;;;;5071306;28;19936;-84
2022/01/17 07:35:25;;;;;;;;;;;6.40;85.80;;;;;;5055206;28;19970;-84
2022/01/17 07:37:51;;;;;;;;;;;6.50;85.70;;;;;;5056337;28;19920;-84
2022/01/17 07:40:16;;;;;;;;;;;6.50;86.00;;;;;;5054670;28;19913;-84
2022/01/17 07:42:42;;;;;;;;;;;6.50;85.80;;;;;;5056570;28;19959;-85
2022/01/17 07:45:16;;;;;;;;;;;6.50;85.90;;;;;;5069172;28;19963;-82
2022/01/17 07:50:11;;;;;;;;;;;6.50;86.00;;;;;;5057301;28;19913;-82
2022/01/17 07:52:36;;;;;;;;;;;6.50;86.10;;;;;;5037743;28;20394;-82
2022/01/17 07:55:02;;;;;;;;;;;6.60;85.70;;;;;;5039211;28;20013;-82
2022/01/17 07:57:28;;;;;;;;;;;6.60;85.70;;;;;;5056607;28;19992;-82
2022/01/17 07:59:53;;;;;;;;;;;6.50;85.90;;;;;;5062634;28;19941;-82
2022/01/17 08:02:19;;;;;;;;;;;6.60;85.80;;;;;;5039698;28;19960;-82
2022/01/17 08:04:44;;;;;;;;;;;6.60;85.80;;;;;;5039131;28;20008;-84
2022/01/17 08:07:10;;;;;;;;;;;6.50;86.30;;;;;;5059174;28;19920;-86
2022/01/17 08:09:38;;;;;;;;;;;6.60;86.10;;;;;;5061054;28;19921;-85
2022/01/17 08:12:05;;;;;;;;;;;6.60;85.80;;;;;;5061205;28;19912;-87
2022/01/17 08:14:30;;;;;;;;;;;6.60;85.90;;;;;;5056788;28;20451;-85
2022/01/17 08:16:55;;;;;;;;;;;6.60;86.10;;;;;;5054639;28;19909;-86
2022/01/17 08:19:25;;;;;;;;;;;6.60;85.90;;;;;;5069680;28;19947;-90
2022/01/17 08:21:52;;;;;;;;;;;6.60;85.70;;;;;;5071033;28;20012;-82
2022/01/17 08:24:20;;;;;;;;;;;6.60;85.80;;;;;;5056380;28;19908;-79
2022/01/17 08:26:46;;;;;;;;;;;6.50;86.00;;;;;;5054328;28;20594;-79
2022/01/17 08:29:11;;;;;;;;;;;6.60;86.00;;;;;;5053835;28;19913;-78
2022/01/17 08:31:37;;;;;;;;;;;6.60;86.20;;;;;;5054087;28;20025;-79
2022/01/17 08:34:03;;;;;;;;;;;6.70;85.80;;;;;;5065803;28;19988;-80
2022/01/17 08:36:28;;;;;;;;;;;6.70;85.90;;;;;;5066139;28;19959;-80
2022/01/17 08:38:54;;;;;;;;;;;6.60;86.10;;;;;;5047958;28;20138;-80
2022/01/17 08:41:19;;;;;;;;;;;6.60;86.30;;;;;;5053844;28;19909;-80
2022/01/17 08:43:46;;;;;;;;;;;6.60;86.50;;;;;;5052814;28;19913;-79
2022/01/17 08:46:11;;;;;;;;;;;6.60;86.20;;;;;;5052341;28;19913;-79
2022/01/17 08:48:38;;;;;;;;;;;6.70;86.10;;;;;;5052943;28;20698;-80
2022/01/17 08:51:03;;;;;;;;;;;6.70;85.90;;;;;;5053045;28;19920;-79
2022/01/17 08:53:29;;;;;;;;;;;6.70;86.20;;;;;;5068974;28;19917;-80
2022/01/17 08:55:54;;;;;;;;;;;6.70;86.20;;;;;;5053047;28;20385;-80
2022/01/17 08:58:20;;;;;;;;;;;6.70;86.50;;;;;;5055426;28;20050;-80
2022/01/17 09:00:45;;;;;;;;;;;6.70;86.80;;;;;;5071374;28;19916;-80
2022/01/17 09:03:10;;;;;;;;;;;6.70;86.70;;;;;;5055497;28;20361;-81
2022/01/17 09:05:36;;;;;;;;;;;6.60;87.10;;;;;;5060659;28;20223;-79
2022/01/17 09:08:03;;;;;;;;;;;6.60;87.10;;;;;;5063144;28;20079;-79
2022/01/17 09:10:28;;;;;;;;;;;6.60;87.10;;;;;;5063865;28;19912;-80
2022/01/17 09:12:54;;;;;;;;;;;6.70;87.20;;;;;;5061655;28;19909;-77
2022/01/17 09:15:20;;;;;;;;;;;6.70;86.90;;;;;;5051460;28;19913;-80
2022/01/17 09:17:45;;;;;;;;;;;6.70;86.90;;;;;;5064568;28;19909;-80
2022/01/17 09:20:11;;;;;;;;;;;6.80;86.80;;;;;;5031724;28;19960;-80
2022/01/17 09:22:36;;;;;;;;;;;6.70;86.80;;;;;;5034683;28;19917;-80
2022/01/17 09:25:06;;;;;;;;;;;6.80;87.00;;;;;;5040974;28;19976;-80
2022/01/17 09:27:32;;;;;;;;;;;6.80;86.50;;;;;;5052165;28;20381;-79
2022/01/17 09:29:57;;;;;;;;;;;6.80;86.80;;;;;;5053287;28;19931;-78
2022/01/17 09:32:23;;;;;;;;;;;6.90;86.70;;;;;;5069817;28;19913;-79
2022/01/17 09:34:48;;;;;;;;;;;6.90;86.60;;;;;;5054391;28;19980;-79
2022/01/17 09:37:14;;;;;;;;;;;7.00;86.80;;;;;;5055107;28;19917;-79
2022/01/17 09:39:39;;;;;;;;;;;7.00;86.60;;;;;;5051623;28;19912;-79
2022/01/17 09:42:06;;;;;;;;;;;6.90;86.70;;;;;;5053523;28;19922;-79
2022/01/17 09:44:32;;;;;;;;;;;7.00;86.80;;;;;;5052171;28;20726;-79
2022/01/17 09:46:58;;;;;;;;;;;6.90;86.80;;;;;;5052648;28;19912;-80
2022/01/17 09:49:48;;;;;;;;;;;7.00;87.00;;;;;;5052340;28;19931;-79
2022/01/17 09:52:33;;;;;;;;;;;7.00;86.80;;;;;;5053417;28;19909;-80
2022/01/17 09:55:05;;;;;;;;;;;6.90;87.10;;;;;;5056072;28;19913;-80
2022/01/17 09:57:31;;;;;;;;;;;6.80;87.90;;;;;;5070873;28;19909;-80
2022/01/17 09:59:57;;;;;;;;;;;6.80;88.50;;;;;;5051066;28;19909;-81
2022/01/17 10:02:23;;;;;;;;;;;6.80;88.30;;;;;;5057588;28;19983;-80
2022/01/17 10:04:48;;;;;;;;;;;6.80;88.30;;;;;;5041643;28;19960;-79
2022/01/17 10:07:15;;;;;;;;;;;6.80;88.50;;;;;;5034292;28;20128;-80
2022/01/17 10:09:52;;;;;;;;;;;6.70;88.80;;;;;;5032462;28;19921;-81
2022/01/17 10:12:17;;;;;;;;;;;6.80;89.00;;;;;;5040299;28;20008;-79
2022/01/17 10:14:45;;;;;;;;;;;6.80;88.90;;;;;;5050753;28;19940;-80
2022/01/17 10:17:12;;;;;;;;;;;6.70;89.10;;;;;;5051562;28;19931;-80
2022/01/17 10:19:38;;;;;;;;;;;6.70;89.50;;;;;;5052780;28;19909;-81
2022/01/17 10:22:10;;;;;;;;;;;6.70;89.40;;;;;;5056940;28;19954;-79
2022/01/17 10:30:22;;;;;;;;;;;6.70;89.30;;;;;;5054891;28;20544;-79
2022/01/17 10:35:27;;;;;;;;;;;6.70;89.50;;;;;;5048646;28;19943;-80
2022/01/17 10:37:59;;;;;;;;;;;6.70;89.70;;;;;;5066538;28;19935;-80
2022/01/17 10:40:25;;;;;;;;;;;6.70;89.60;;;;;;5048729;28;19921;-81
2022/01/17 10:42:52;;;;;;;;;;;6.70;89.60;;;;;;5052413;28;20325;-81
2022/01/17 10:45:19;;;;;;;;;;;6.80;89.60;;;;;;5049337;28;20335;-81
2022/01/17 10:47:45;;;;;;;;;;;6.80;89.50;;;;;;5059348;28;19929;-82
2022/01/17 10:50:20;;;;;;;;;;;6.70;89.80;;;;;;5057168;28;19913;-82
2022/01/17 10:52:47;;;;;;;;;;;6.70;90.20;;;;;;5067217;28;19913;-80
2022/01/17 10:55:17;;;;;;;;;;;6.80;89.80;;;;;;5052251;28;20035;-82
2022/01/17 10:57:45;;;;;;;;;;;6.80;89.80;;;;;;5047681;28;19996;-81
2022/01/17 11:00:21;;;;;;;;;;;6.70;89.80;;;;;;5052898;28;20300;-81
2022/01/17 11:02:50;;;;;;;;;;;6.80;90.10;;;;;;5066940;28;19913;-82
2022/01/17 11:05:17;;;;;;;;;;;6.80;90.20;;;;;;5051701;28;19917;-81
2022/01/17 11:07:44;;;;;;;;;;;6.80;90.10;;;;;;5050819;28;20403;-81
2022/01/17 11:10:15;;;;;;;;;;;6.80;89.80;;;;;;5056534;28;19952;-79
2022/01/17 11:12:40;;;;;;;;;;;6.80;89.90;;;;;;5062465;28;19917;-80
2022/01/17 11:15:06;;;;;;;;;;;6.80;90.20;;;;;;5059218;28;19963;-81
2022/01/17 11:17:38;;;;;;;;;;;6.80;90.00;;;;;;5060328;28;20004;-82
2022/01/17 11:20:07;;;;;;;;;;;6.90;89.90;;;;;;5071849;28;19909;-82
2022/01/17 11:22:36;;;;;;;;;;;6.80;90.10;;;;;;5051275;28;20014;-81
2022/01/17 11:25:04;;;;;;;;;;;6.90;90.10;;;;;;5068663;28;19913;-81
2022/01/17 11:27:29;;;;;;;;;;;6.90;90.10;;;;;;5070485;28;20070;-78
2022/01/17 11:29:55;;;;;;;;;;;6.80;89.80;;;;;;5060518;28;19993;-78
2022/01/17 11:32:22;;;;;;;;;;;6.90;89.80;;;;;;5056050;28;20316;-79
2022/01/17 11:34:49;;;;;;;;;;;6.90;89.90;;;;;;5053363;28;19912;-78
2022/01/17 11:37:14;;;;;;;;;;;6.90;89.70;;;;;;5053943;28;19913;-80
2022/01/17 11:39:43;;;;;;;;;;;6.90;89.70;;;;;;5053745;28;20353;-79
2022/01/17 11:42:27;;;;;;;;;;;7.00;89.70;;;;;;5056095;28;19971;-81
2022/01/17 11:44:52;;;;;;;;;;;7.00;89.50;;;;;;5050719;28;21318;-79
2022/01/17 11:47:38;;;;;;;;;;;7.00;89.50;;;;;;5062769;28;19944;-79
2022/01/17 11:50:22;;;;;;;;;;;7.10;89.30;;;;;;5068472;28;20007;-82
2022/01/17 11:52:47;;;;;;;;;;;7.00;89.30;;;;;;5058483;28;19912;-82
2022/01/17 11:55:33;;;;;;;;;;;6.90;89.40;;;;;;5076261;28;19920;-82
2022/01/17 11:58:18;;;;;;;;;;;7.00;89.50;;;;;;5064249;28;20289;-82
2022/01/17 12:00:44;;;;;;;;;;;7.00;89.70;;;;;;5081298;28;19908;-81
2022/01/17 12:03:17;;;;;;;;;;;7.10;89.70;;;;;;5056501;28;19916;-82
2022/01/17 12:05:42;;;;;;;;;;;7.10;89.60;;;;;;5062640;28;19913;-83
2022/01/17 12:08:13;;;;;;;;;;;7.10;89.50;;;;;;5064859;28;19971;-82
2022/01/17 12:10:40;;;;;;;;;;;7.00;89.60;;;;;;5064862;28;19913;-82
2022/01/17 12:13:20;;;;;;;;;;;7.00;89.90;;;;;;5065438;28;19916;-82
2022/01/17 12:16:10;;;;;;;;;;;7.00;89.80;;;;;;5059621;28;19928;-83
2022/01/17 12:18:48;;;;;;;;;;;7.00;89.70;;;;;;5062354;28;19917;-82
2022/01/17 12:21:28;;;;;;;;;;;7.00;89.60;;;;;;5063422;28;19912;-82
2022/01/17 12:24:13;;;;;;;;;;;7.00;89.50;;;;;;5078822;28;19920;-83
2022/01/17 12:26:38;;;;;;;;;;;7.00;89.50;;;;;;5080324;28;19917;-83
2022/01/17 12:29:04;;;;;;;;;;;7.00;89.80;;;;;;5064333;28;19922;-83
2022/01/17 12:31:36;;;;;;;;;;;7.00;89.70;;;;;;5065487;28;19921;-83
2022/01/17 12:34:23;;;;;;;;;;;7.10;89.80;;;;;;5058060;28;19913;-83
2022/01/17 12:36:49;;;;;;;;;;;7.00;89.70;;;;;;5058641;28;19916;-83
2022/01/17 12:39:20;;;;;;;;;;;7.10;89.60;;;;;;5063435;28;19995;-83
2022/01/17 12:41:47;;;;;;;;;;;7.10;89.60;;;;;;5078476;28;19919;-84
2022/01/17 12:44:22;;;;;;;;;;;7.00;89.80;;;;;;5061096;28;19921;-82
2022/01/17 12:46:49;;;;;;;;;;;7.10;90.00;;;;;;5060359;28;19932;-82
2022/01/17 12:49:16;;;;;;;;;;;7.10;90.00;;;;;;5045935;28;19980;-81
2022/01/17 12:51:42;;;;;;;;;;;7.00;90.10;;;;;;5046761;22;19945;-84
2022/01/17 12:54:18;;;;;;;;;;;7.10;90.10;;;;;;4978618;28;19910;-85
2022/01/17 12:56:44;;;;;;;;;;;7.10;90.20;;;;;;4994944;28;19936;-83
2022/01/17 12:59:10;;;;;;;;;;;7.10;90.00;;;;;;4986347;28;20327;-85
2022/01/17 13:01:39;;;;;;;;;;;7.10;90.20;;;;;;4994438;28;19921;-83
2022/01/17 13:04:08;;;;;;;;;;;7.10;90.40;;;;;;5005633;28;19961;-83
2022/01/17 13:06:34;;;;;;;;;;;7.10;90.40;;;;;;5005781;28;19921;-83
2022/01/17 13:09:02;;;;;;;;;;;7.10;90.40;;;;;;5000650;28;19995;-84
2022/01/17 13:11:28;;;;;;;;;;;7.10;90.40;;;;;;4997178;28;19990;-85
2022/01/17 13:13:57;;;;;;;;;;;7.20;90.30;;;;;;4996523;28;20057;-82
2022/01/17 13:16:23;;;;;;;;;;;7.30;90.50;;;;;;4997494;28;19918;-84
2022/01/17 13:18:50;;;;;;;;;;;7.40;90.20;;;;;;5011780;28;19914;-83
2022/01/17 13:21:22;;;;;;;;;;;7.40;90.00;;;;;;4993534;28;19914;-90
2022/01/17 13:26:23;;;;;;;;;;;7.40;89.60;;;;;;4993913;28;19925;-85
2022/01/17 13:28:49;;;;;;;;;;;7.40;89.80;;;;;;4992104;28;19913;-82
2022/01/17 13:31:16;;;;;;;;;;;7.50;89.90;;;;;;4990954;28;21340;-81
2022/01/17 13:33:41;;;;;;;;;;;7.50;89.60;;;;;;4993057;28;20008;-80
2022/01/17 13:36:06;;;;;;;;;;;7.40;89.70;;;;;;4989844;28;19945;-82
2022/01/17 13:38:32;;;;;;;;;;;7.40;89.90;;;;;;4991860;28;19914;-82
2022/01/17 13:41:02;;;;;;;;;;;7.50;89.70;;;;;;4993191;28;19922;-80
2022/01/17 13:43:27;;;;;;;;;;;7.50;89.60;;;;;;4993964;28;19910;-82
2022/01/17 13:45:54;;;;;;;;;;;7.60;89.60;;;;;;4993300;28;19939;-81
2022/01/17 13:48:21;;;;;;;;;;;7.60;89.50;;;;;;4993515;28;20304;-81
2022/01/17 13:50:51;;;;;;;;;;;7.50;89.60;;;;;;4994169;28;19918;-82
2022/01/17 13:53:17;;;;;;;;;;;7.60;89.70;;;;;;4995091;28;19985;-83
2022/01/17 13:55:44;;;;;;;;;;;7.60;89.70;;;;;;4995955;28;20096;-82
2022/01/17 13:58:11;;;;;;;;;;;7.60;89.60;;;;;;4994568;28;19918;-82
2022/01/17 14:00:39;;;;;;;;;;;7.60;89.50;;;;;;4992626;28;20360;-83
2022/01/17 14:03:05;;;;;;;;;;;7.60;89.60;;;;;;4994787;28;19921;-83
2022/01/17 14:05:32;;;;;;;;;;;7.60;89.40;;;;;;4992344;28;20000;-84
2022/01/17 14:08:11;;;;;;;;;;;7.60;89.60;;;;;;4995838;28;19925;-82
2022/01/17 14:10:45;;;;;;;;;;;7.60;89.70;;;;;;4994923;28;19914;-82
2022/01/17 14:13:11;;;;;;;;;;;7.60;89.70;;;;;;4995580;28;19922;-82
2022/01/17 14:15:36;;;;;;;;;;;7.70;89.60;;;;;;4997267;28;19974;-82
2022/01/17 14:18:06;;;;;;;;;;;7.70;89.30;;;;;;4991603;28;19976;-82
2022/01/17 14:20:32;;;;;;;;;;;7.70;89.30;;;;;;4982468;28;19924;-82
2022/01/17 14:22:57;;;;;;;;;;;7.70;89.20;;;;;;4991059;28;20351;-82
2022/01/17 14:25:23;;;;;;;;;;;7.70;89.20;;;;;;4993353;28;19932;-82
2022/01/17 14:28:03;;;;;;;;;;;7.80;89.20;;;;;;4988339;28;19918;-82
2022/01/17 14:30:30;;;;;;;;;;;7.70;89.20;;;;;;4990161;28;19979;-84
2022/01/17 14:33:06;;;;;;;;;;;7.70;89.10;;;;;;4990324;28;20258;-82
2022/01/17 14:35:32;;;;;;;;;;;7.70;89.00;;;;;;4981576;28;19924;-79
2022/01/17 14:38:00;;;;;;;;;;;7.80;88.90;;;;;;4976575;28;19918;-80
2022/01/17 14:40:30;;;;;;;;;;;7.80;89.10;;;;;;4973302;28;19918;-81
2022/01/17 14:43:07;;;;;;;;;;;7.80;89.00;;;;;;4974942;28;19918;-83
2022/01/17 14:45:33;;;;;;;;;;;7.80;89.10;;;;;;4980410;28;19918;-82
2022/01/17 14:47:58;;;;;;;;;;;7.70;89.20;;;;;;5009973;28;19913;-84
2022/01/17 14:50:24;;;;;;;;;;;7.70;89.60;;;;;;5001447;28;19972;-83
2022/01/17 14:52:53;;;;;;;;;;;7.70;89.80;;;;;;4999334;28;19932;-83
2022/01/17 15:00:53;;;;;;;;;;;7.80;89.90;;;;;;4994268;28;19968;-87
2022/01/17 15:03:26;;;;;;;;;;;7.80;89.90;;;;;;5011660;28;19983;-82
2022/01/17 15:05:51;;;;;;;;;;;7.80;90.10;;;;;;4997026;28;19918;-84
2022/01/17 15:08:17;;;;;;;;;;;7.70;90.30;;;;;;5011610;28;19917;-83
2022/01/17 15:10:43;;;;;;;;;;;7.80;90.30;;;;;;4995987;28;19914;-83